createdAt,value
2018-11-26T08:53:42.349Z,22.00
2018-11-26T08:56:16.869Z,22.10
2018-11-26T08:58:53.468Z,22.20
2018-11-26T09:01:31.094Z,22.30
2018-11-26T09:04:08.688Z,22.30
2018-11-26T09:06:41.934Z,22.30
2018-11-26T09:09:14.287Z,22.20
2018-11-26T09:11:47.102Z,22.20
2018-11-26T09:14:18.938Z,22.20
2018-11-26T09:16:49.487Z,22.20
2018-11-26T09:19:21.354Z,22.20
2018-11-26T09:21:52.230Z,22.10
2018-11-26T09:24:22.799Z,22.10
2018-11-26T09:26:53.321Z,22.20
2018-11-26T09:29:24.345Z,22.20
2018-11-26T09:31:55.005Z,22.20
2018-11-26T09:34:25.730Z,22.10
2018-11-26T09:36:56.301Z,22.10
2018-11-26T09:39:26.532Z,22.10
2018-11-26T09:41:56.961Z,22.10
2018-11-26T09:44:26.515Z,22.10
2018-11-26T09:46:56.143Z,22.10
2018-11-26T09:49:25.695Z,22.10
2018-11-26T09:51:55.221Z,22.10
2018-11-26T09:54:26.052Z,22.00
2018-11-26T09:56:54.511Z,22.00
2018-11-26T09:59:24.638Z,22.10
2018-11-26T10:01:54.176Z,22.10
2018-11-26T10:04:23.781Z,22.10
2018-11-26T10:06:53.930Z,22.10
2018-11-26T10:09:24.197Z,22.10
2018-11-26T10:11:53.804Z,22.10
2018-11-26T10:14:23.045Z,22.10
2018-11-26T10:16:52.764Z,22.10
2018-11-26T10:19:22.555Z,22.10
2018-11-26T10:21:52.464Z,22.20
2018-11-26T10:24:22.488Z,22.10
2018-11-26T10:26:52.599Z,22.10
2018-11-26T10:29:22.223Z,22.20
2018-11-26T10:31:51.629Z,22.20
2018-11-26T10:34:21.098Z,22.30
2018-11-26T10:36:50.853Z,22.40
2018-11-26T10:39:20.841Z,22.40
2018-11-26T10:41:50.634Z,22.40
2018-11-26T10:44:20.032Z,22.50
2018-11-26T10:46:50.253Z,22.50
2018-11-26T10:49:19.891Z,22.60
2018-11-26T10:51:49.944Z,22.60
2018-11-26T10:54:20.037Z,22.60
2018-11-26T10:56:49.743Z,22.60
2018-11-26T10:59:19.328Z,22.70
2018-11-26T11:01:53.412Z,22.70
2018-11-26T11:04:23.113Z,22.70
2018-11-26T11:06:55.869Z,22.70
2018-11-26T11:09:22.831Z,22.70
2018-11-26T11:11:52.529Z,22.60
2018-11-26T12:00:22.931Z,22.50
2018-11-26T12:02:53.987Z,22.50
2018-11-26T12:05:24.312Z,22.60
2018-11-26T12:07:55.287Z,22.70
2018-11-26T12:10:26.598Z,22.60
2018-11-26T12:12:57.228Z,22.70
2018-11-26T12:15:27.869Z,22.70
2018-11-26T12:17:58.385Z,22.70
2018-11-26T12:20:28.795Z,22.80
2018-11-26T12:22:58.908Z,22.70
2018-11-26T12:25:28.940Z,22.70
2018-11-26T12:27:58.713Z,22.70
2018-11-26T12:30:31.355Z,22.90
2018-11-26T12:33:01.207Z,23.10
2018-11-26T12:35:31.289Z,23.20
2018-11-26T12:38:02.625Z,23.20
2018-11-26T12:40:32.705Z,23.30
2018-11-26T12:43:04.117Z,23.30
2018-11-26T12:45:34.840Z,23.40
2018-11-26T12:48:04.915Z,23.40
2018-11-26T12:50:34.909Z,23.40
2018-11-26T12:53:05.108Z,23.40
2018-11-26T12:55:35.682Z,23.40
2018-11-26T12:58:05.967Z,23.40
2018-11-26T13:00:36.599Z,23.40
2018-11-26T13:03:09.576Z,23.50
2018-11-26T13:05:39.170Z,23.30
2018-11-26T13:08:10.300Z,23.10
2018-11-26T13:10:40.184Z,23.00
2018-11-26T13:13:11.061Z,23.00
2018-11-26T13:15:40.726Z,23.00
2018-11-26T13:18:11.004Z,23.00
2018-11-26T13:20:40.864Z,23.10
2018-11-26T13:23:10.673Z,23.20
2018-11-26T13:25:42.017Z,23.20
2018-11-26T13:28:11.577Z,23.30
2018-11-26T13:30:44.180Z,23.20
2018-11-26T13:33:16.404Z,23.20
2018-11-26T13:35:49.181Z,23.20
2018-11-26T13:38:20.109Z,23.30
2018-11-26T13:40:49.717Z,23.30
2018-11-26T13:43:19.561Z,23.30
2018-11-26T13:45:49.891Z,23.30
2018-11-26T13:48:20.170Z,23.30
2018-11-26T13:50:54.974Z,23.30
2018-11-26T13:53:25.204Z,23.20
2018-11-26T13:55:54.639Z,23.20
2018-11-26T13:58:24.190Z,23.30
2018-11-26T14:00:54.163Z,23.20
2018-11-26T14:03:23.365Z,23.20
2018-11-26T14:05:53.497Z,23.20
2018-11-26T14:08:22.692Z,23.20
2018-11-26T14:10:52.323Z,23.20
2018-11-26T14:13:21.915Z,23.20
2018-11-26T14:15:51.577Z,23.40
2018-11-26T14:18:21.031Z,23.40
2018-11-26T14:20:50.535Z,23.50
2018-11-26T14:23:20.601Z,23.40
2018-11-26T14:25:50.168Z,23.40
2018-11-26T14:28:19.767Z,23.30
2018-11-26T14:30:49.239Z,23.30
2018-11-26T14:33:19.077Z,23.30
2018-11-26T14:35:48.469Z,23.40
2018-11-26T14:38:18.063Z,23.30
2018-11-26T14:40:49.498Z,23.30
2018-11-26T14:43:18.965Z,23.40
2018-11-26T14:45:48.554Z,23.60
2018-11-26T14:48:17.945Z,23.70
2018-11-26T14:50:48.130Z,23.70
2018-11-26T14:53:18.633Z,23.70
2018-11-26T14:55:48.013Z,23.80
2018-11-26T14:58:17.572Z,23.80
2018-11-26T15:00:47.239Z,23.80
2018-11-26T15:03:16.829Z,23.80
2018-11-26T15:05:46.612Z,23.80
2018-11-26T15:08:16.597Z,23.80
2018-11-26T15:10:46.211Z,23.80
2018-11-26T15:13:15.702Z,23.80
2018-11-26T15:15:44.793Z,23.70
2018-11-26T15:18:14.625Z,23.60
2018-11-26T15:20:44.490Z,23.60
2018-11-26T15:23:14.045Z,23.50
2018-11-26T15:25:43.201Z,23.50
2018-11-26T15:28:13.963Z,23.40
2018-11-26T15:30:43.437Z,23.40
2018-11-26T15:33:12.948Z,23.40
2018-11-26T15:35:43.297Z,23.40
2018-11-26T15:38:12.765Z,23.40
2018-11-26T15:40:42.680Z,23.30
2018-11-26T15:43:12.457Z,23.30
2018-11-26T15:45:41.945Z,23.30
2018-11-26T15:48:12.802Z,23.40
2018-11-26T15:50:42.559Z,23.30
2018-11-26T15:53:12.062Z,23.40
2018-11-26T15:55:41.410Z,23.50
2018-11-26T15:58:11.267Z,23.50
2018-11-26T16:00:41.024Z,23.50
2018-11-26T16:03:10.981Z,23.50
2018-11-26T16:05:40.633Z,23.50
2018-11-26T16:08:14.198Z,23.50
2018-11-26T16:10:43.988Z,23.50
2018-11-26T16:13:15.134Z,23.50
2018-11-26T16:15:45.724Z,23.60
2018-11-26T16:18:19.035Z,23.70
2018-11-26T16:20:48.722Z,23.70
2018-11-26T16:23:18.191Z,23.70
2018-11-26T16:25:49.031Z,23.70
2018-11-26T16:28:20.607Z,23.80
2018-11-26T16:30:50.342Z,23.80
2018-11-26T16:33:19.974Z,23.80
2018-11-26T16:35:49.084Z,23.80
2018-11-26T16:38:18.691Z,23.80
2018-11-26T16:40:48.541Z,23.60
2018-11-26T16:43:17.960Z,23.60
2018-11-26T16:45:47.773Z,23.60
2018-11-26T16:48:17.596Z,23.60
2018-11-26T16:50:47.256Z,23.60
2018-11-26T16:53:19.393Z,23.60
2018-11-26T16:55:46.464Z,23.60
2018-11-26T16:58:16.462Z,23.40
2018-11-26T17:00:45.817Z,23.50
2018-11-26T17:03:15.414Z,23.50
2018-11-26T17:05:44.991Z,23.40
2018-11-26T17:08:15.674Z,23.40
2018-11-26T17:10:45.109Z,23.30
2018-11-26T17:13:15.391Z,23.40
